createdAt,value
2022-12-14T00:00:23.089Z,1005.25
2022-12-14T00:01:23.370Z,1005.15
2022-12-14T00:02:23.695Z,1005.16
2022-12-14T00:03:24.127Z,1005.13
2022-12-14T00:04:26.194Z,1005.14
2022-12-14T00:05:26.363Z,1005.15
2022-12-14T00:06:26.553Z,1005.16
2022-12-14T00:07:26.765Z,1005.19
2022-12-14T00:08:27.848Z,1005.15
2022-12-14T00:09:27.624Z,1005.11
2022-12-14T00:10:27.214Z,1005.12
2022-12-14T00:11:28.397Z,1005.11
2022-12-14T00:12:28.578Z,1005.19
2022-12-14T00:13:28.774Z,1005.27
2022-12-14T00:14:28.966Z,1005.16
2022-12-14T00:15:29.686Z,1005.12
2022-12-14T00:16:29.836Z,1005.08
2022-12-14T00:17:30.029Z,1005.09
2022-12-14T00:18:30.301Z,1005.08
2022-12-14T00:19:30.883Z,1005.13
2022-12-14T00:20:31.117Z,1005.03
2022-12-14T00:21:31.280Z,1005.07
2022-12-14T00:22:31.468Z,1005.07
2022-12-14T00:23:37.110Z,1005.00
2022-12-14T00:24:32.857Z,1005.00
2022-12-14T00:25:32.007Z,1005.07
2022-12-14T00:26:32.712Z,1005.00
2022-12-14T00:27:32.879Z,1005.01
2022-12-14T00:28:33.065Z,1005.04
2022-12-14T00:29:33.257Z,1005.04
2022-12-14T00:30:33.925Z,1005.08
2022-12-14T00:31:34.208Z,1005.03
2022-12-14T00:32:34.327Z,1005.07
2022-12-14T00:33:34.524Z,1004.96
2022-12-14T00:34:34.696Z,1004.99
2022-12-14T00:35:33.480Z,1005.05
2022-12-14T00:36:33.770Z,1005.05
2022-12-14T00:37:35.985Z,1005.02
2022-12-14T00:38:34.361Z,1005.00
2022-12-14T00:39:36.551Z,1005.01
2022-12-14T00:40:34.934Z,1005.01
2022-12-14T00:41:37.131Z,1005.06
2022-12-14T00:42:35.510Z,1005.07
2022-12-14T00:43:37.715Z,1005.06
2022-12-14T00:44:37.903Z,1005.07
2022-12-14T00:45:36.414Z,1005.07
2022-12-14T00:46:36.748Z,1005.11
2022-12-14T00:47:40.670Z,1005.07
2022-12-14T00:48:37.349Z,1005.14
2022-12-14T00:49:39.572Z,1005.07
2022-12-14T00:50:39.978Z,1005.06
2022-12-14T00:51:38.256Z,1005.03
2022-12-14T00:52:40.418Z,1005.00
2022-12-14T00:53:38.798Z,1004.99
2022-12-14T00:54:40.982Z,1004.96
2022-12-14T00:55:39.358Z,1004.97
2022-12-14T00:56:39.700Z,1004.97
2022-12-14T00:57:40.009Z,1004.92
2022-12-14T00:58:40.304Z,1004.91
2022-12-14T00:59:42.487Z,1004.98
2022-12-14T01:00:40.872Z,1004.89
2022-12-14T01:01:41.261Z,1004.81
2022-12-14T01:02:41.530Z,1004.76
2022-12-14T01:03:41.794Z,1004.69
2022-12-14T01:04:43.894Z,1004.66
2022-12-14T01:05:42.274Z,1004.68
2022-12-14T01:06:43.597Z,1004.72
2022-12-14T01:07:43.779Z,1004.75
2022-12-14T01:08:44.144Z,1004.80
2022-12-14T01:09:45.343Z,1004.78
2022-12-14T01:10:43.721Z,1004.75
2022-12-14T01:11:44.055Z,1004.76
2022-12-14T01:12:44.340Z,1004.72
2022-12-14T01:13:49.201Z,1004.79
2022-12-14T01:14:44.938Z,1004.80
2022-12-14T01:15:47.230Z,1004.77
2022-12-14T01:16:45.542Z,1004.73
2022-12-14T01:17:45.854Z,1004.72
2022-12-14T01:18:46.173Z,1004.64
2022-12-14T01:19:49.167Z,1004.66
2022-12-14T01:20:48.743Z,1004.63
2022-12-14T01:21:47.029Z,1004.64
2022-12-14T01:22:47.331Z,1004.65
2022-12-14T01:23:47.644Z,1004.63
2022-12-14T01:24:49.841Z,1004.62
2022-12-14T01:25:50.052Z,1004.62
2022-12-14T01:26:48.524Z,1004.64
2022-12-14T01:27:48.842Z,1004.66
2022-12-14T01:28:49.145Z,1004.61
2022-12-14T01:29:49.452Z,1004.56
2022-12-14T01:30:51.671Z,1004.56
2022-12-14T01:31:50.030Z,1004.61
2022-12-14T01:32:50.335Z,1004.60
2022-12-14T01:33:50.630Z,1004.73
2022-12-14T01:34:50.914Z,1004.58
2022-12-14T01:35:53.104Z,1004.57
2022-12-14T01:36:51.499Z,1004.54
2022-12-14T01:37:51.803Z,1004.58
2022-12-14T01:38:52.123Z,1004.55
2022-12-14T01:39:54.300Z,1004.59
2022-12-14T01:40:54.478Z,1004.55
2022-12-14T01:41:53.024Z,1004.54
2022-12-14T01:42:55.148Z,1004.54
2022-12-14T01:43:55.308Z,1004.49
2022-12-14T01:44:55.507Z,1004.46
2022-12-14T01:45:55.672Z,1004.43
2022-12-14T01:46:56.405Z,1004.44
2022-12-14T01:47:56.531Z,1004.45
2022-12-14T01:48:56.672Z,1004.43
2022-12-14T01:49:56.893Z,1004.47
2022-12-14T01:50:57.560Z,1004.41
2022-12-14T01:51:57.736Z,1004.42
2022-12-14T01:52:57.197Z,1004.37
2022-12-14T01:53:56.567Z,1004.42
2022-12-14T01:54:58.768Z,1004.42
2022-12-14T01:55:57.162Z,1004.39
2022-12-14T01:56:59.348Z,1004.49
2022-12-14T01:57:59.540Z,1004.46
2022-12-14T01:58:58.056Z,1004.43
2022-12-14T02:00:06.684Z,1004.42
2022-12-14T02:00:59.690Z,1004.47
2022-12-14T02:02:00.962Z,1004.48
2022-12-14T02:02:59.337Z,1004.38
2022-12-14T02:03:59.514Z,1004.43
2022-12-14T02:05:01.701Z,1004.35
2022-12-14T02:06:01.897Z,1004.40
2022-12-14T02:07:02.095Z,1004.38
2022-12-14T02:08:00.723Z,1004.39
2022-12-14T02:09:01.043Z,1004.37
2022-12-14T02:10:01.351Z,1004.37
2022-12-14T02:11:01.676Z,1004.35
2022-12-14T02:12:03.862Z,1004.32
2022-12-14T02:13:02.241Z,1004.35
2022-12-14T02:14:04.453Z,1004.35
2022-12-14T02:15:05.574Z,1004.34
2022-12-14T02:16:04.849Z,1004.33
2022-12-14T02:17:04.960Z,1004.32
2022-12-14T02:18:05.169Z,1004.27
2022-12-14T02:19:05.824Z,1004.25
2022-12-14T02:20:06.030Z,1004.31
2022-12-14T02:21:06.219Z,1004.28
2022-12-14T02:22:04.862Z,1004.24
2022-12-14T02:23:07.050Z,1004.29
2022-12-14T02:24:07.246Z,1004.17
2022-12-14T02:25:07.430Z,1004.15
2022-12-14T02:26:07.633Z,1004.13
2022-12-14T02:27:08.307Z,1004.18
2022-12-14T02:28:08.513Z,1004.17
2022-12-14T02:29:07.010Z,1004.20
2022-12-14T02:30:09.206Z,1004.09
2022-12-14T02:31:07.609Z,1004.08
2022-12-14T02:32:09.773Z,1004.14
2022-12-14T02:33:09.963Z,1004.09
2022-12-14T02:34:10.121Z,1004.08
2022-12-14T02:35:08.756Z,1004.04
2022-12-14T02:36:09.061Z,1004.08
2022-12-14T02:37:11.254Z,1003.99
2022-12-14T02:38:11.452Z,1003.99
2022-12-14T02:39:09.979Z,1003.96
2022-12-14T02:40:10.295Z,1003.94
2022-12-14T02:41:10.612Z,1003.92
2022-12-14T02:42:10.916Z,1003.89
2022-12-14T02:43:13.107Z,1003.97
2022-12-14T02:44:11.487Z,1003.92
2022-12-14T02:45:11.791Z,1003.93
2022-12-14T02:46:12.160Z,1003.92
2022-12-14T02:47:12.490Z,1003.94
2022-12-14T02:48:14.639Z,1003.92
2022-12-14T02:49:13.038Z,1003.90
2022-12-14T02:50:13.350Z,1003.87
2022-12-14T02:51:13.665Z,1003.92
2022-12-14T02:52:14.907Z,1003.92
2022-12-14T02:53:14.286Z,1003.92
2022-12-14T02:54:16.473Z,1003.94
2022-12-14T02:55:14.862Z,1003.90
2022-12-14T02:56:17.050Z,1003.87
2022-12-14T02:57:15.439Z,1003.88
2022-12-14T02:58:15.754Z,1003.89
2022-12-14T02:59:16.080Z,1003.86
2022-12-14T03:00:16.395Z,1003.87
2022-12-14T03:01:18.669Z,1003.88
2022-12-14T03:02:17.099Z,1003.87
2022-12-14T03:03:17.274Z,1003.87
2022-12-14T03:04:19.466Z,1003.92
2022-12-14T03:05:17.858Z,1004.06
2022-12-14T03:06:18.160Z,1004.03
2022-12-14T03:07:18.474Z,1003.85
2022-12-14T03:08:18.793Z,1003.89
2022-12-14T03:09:20.975Z,1003.86
2022-12-14T03:10:19.368Z,1003.89
2022-12-14T03:11:19.673Z,1003.86
2022-12-14T03:12:21.865Z,1003.84
2022-12-14T03:13:22.046Z,1003.92
2022-12-14T03:14:22.241Z,1003.89
2022-12-14T03:15:22.413Z,1003.85
2022-12-14T03:16:21.233Z,1003.87
2022-12-14T03:17:21.395Z,1003.83
2022-12-14T03:18:23.632Z,1003.86
2022-12-14T03:19:22.017Z,1003.82
2022-12-14T03:20:24.205Z,1003.79
2022-12-14T03:21:22.594Z,1003.78
2022-12-14T03:22:24.776Z,1003.81
2022-12-14T03:23:25.323Z,1003.83
2022-12-14T03:24:23.418Z,1003.84
2022-12-14T03:25:23.730Z,1003.89
2022-12-14T03:26:24.071Z,1003.88
2022-12-14T03:27:26.222Z,1003.86
2022-12-14T03:28:26.412Z,1003.77
2022-12-14T03:29:24.922Z,1003.80
2022-12-14T03:30:51.216Z,1003.81
2022-12-14T03:31:26.613Z,1003.84
2022-12-14T03:32:27.722Z,1003.81
2022-12-14T03:33:28.398Z,1003.79
2022-12-14T03:34:28.113Z,1003.77
2022-12-14T03:35:28.311Z,1003.84
2022-12-14T03:36:28.500Z,1003.80
2022-12-14T03:37:29.156Z,1003.77
2022-12-14T03:38:29.345Z,1003.81
2022-12-14T03:39:27.851Z,1003.82
2022-12-14T03:40:28.168Z,1003.79
2022-12-14T03:41:28.534Z,1003.75
2022-12-14T03:42:28.713Z,1003.73
2022-12-14T03:43:29.516Z,1003.71
2022-12-14T03:44:31.207Z,1003.74
2022-12-14T03:45:29.630Z,1003.72
2022-12-14T03:46:29.913Z,1003.70
2022-12-14T03:47:30.230Z,1003.72
2022-12-14T03:48:32.434Z,1003.72
2022-12-14T03:49:32.621Z,1003.66
2022-12-14T03:50:32.786Z,1003.67
2022-12-14T03:51:32.933Z,1003.65
2022-12-14T03:52:33.638Z,1003.72
2022-12-14T03:53:33.831Z,1003.62
2022-12-14T03:54:34.027Z,1003.68
2022-12-14T03:55:34.261Z,1003.64
2022-12-14T03:56:33.888Z,1003.58
2022-12-14T03:57:35.047Z,1003.59
2022-12-14T03:58:35.202Z,1003.59
2022-12-14T03:59:35.411Z,1003.58
2022-12-14T04:00:35.559Z,1003.53
2022-12-14T04:01:36.354Z,1003.59
2022-12-14T04:02:40.470Z,1003.65
2022-12-14T04:03:35.975Z,1003.62
2022-12-14T04:04:37.156Z,1003.65
2022-12-14T04:05:37.345Z,1003.65
2022-12-14T04:06:35.867Z,1003.60
2022-12-14T04:07:36.180Z,1003.63
2022-12-14T04:08:36.484Z,1003.56
2022-12-14T04:09:38.675Z,1003.53
2022-12-14T04:10:38.871Z,1003.56
2022-12-14T04:11:37.378Z,1003.54
2022-12-14T04:12:37.673Z,1003.49
2022-12-14T04:13:38.004Z,1003.50
2022-12-14T04:14:38.308Z,1003.48
2022-12-14T04:15:38.613Z,1003.39
2022-12-14T04:16:40.694Z,1003.43
2022-12-14T04:17:39.188Z,1003.40
2022-12-14T04:18:39.492Z,1003.45
2022-12-14T04:19:39.815Z,1003.43
2022-12-14T04:20:40.113Z,1003.40
2022-12-14T04:21:42.335Z,1003.40
2022-12-14T04:22:42.535Z,1003.45
2022-12-14T04:23:41.017Z,1003.38
2022-12-14T04:24:41.323Z,1003.56
2022-12-14T04:25:41.646Z,1003.59
2022-12-14T04:26:43.815Z,1003.56
2022-12-14T04:27:42.212Z,1003.55
2022-12-14T04:28:42.512Z,1003.55
2022-12-14T04:29:47.338Z,1003.52
2022-12-14T04:30:44.998Z,1003.38
2022-12-14T04:31:43.509Z,1003.33
2022-12-14T04:32:43.797Z,1003.32
2022-12-14T04:33:43.944Z,1003.34
2022-12-14T04:34:44.253Z,1003.30
2022-12-14T04:35:46.443Z,1003.33
2022-12-14T04:36:44.824Z,1003.32
2022-12-14T04:37:45.139Z,1003.32
2022-12-14T04:38:45.414Z,1003.32
2022-12-14T04:39:47.628Z,1003.31
2022-12-14T04:40:47.792Z,1003.28
2022-12-14T04:41:46.301Z,1003.25
2022-12-14T04:42:46.605Z,1003.24
2022-12-14T04:43:49.057Z,1003.28
2022-12-14T04:44:48.162Z,1003.20
2022-12-14T04:45:49.423Z,1003.19
2022-12-14T04:46:47.787Z,1003.19
2022-12-14T04:47:48.097Z,1003.21
2022-12-14T04:48:48.413Z,1003.19
2022-12-14T04:49:49.078Z,1003.21
2022-12-14T04:50:50.930Z,1003.18
2022-12-14T04:51:49.321Z,1003.18
2022-12-14T04:52:49.624Z,1003.14
2022-12-14T04:53:49.943Z,1003.15
2022-12-14T04:54:50.236Z,1003.20
2022-12-14T04:55:52.421Z,1003.13
2022-12-14T04:56:52.612Z,1003.12
2022-12-14T04:57:51.138Z,1003.18
2022-12-14T04:58:51.443Z,1003.15
2022-12-14T04:59:51.749Z,1003.16
2022-12-14T05:00:53.977Z,1003.12
2022-12-14T05:01:52.473Z,1003.13
2022-12-14T05:02:54.575Z,1003.11
2022-12-14T05:03:52.933Z,1003.14
2022-12-14T05:04:55.168Z,1003.18
2022-12-14T05:05:53.542Z,1003.13
2022-12-14T05:06:55.723Z,1003.12
2022-12-14T05:07:54.107Z,1003.09
2022-12-14T05:08:57.292Z,1003.04
2022-12-14T05:09:56.525Z,1003.12
2022-12-14T05:11:09.826Z,1003.01
2022-12-14T05:11:57.865Z,1003.02
2022-12-14T05:12:57.567Z,1003.09
2022-12-14T05:13:57.749Z,1002.97
2022-12-14T05:14:56.278Z,1003.00
2022-12-14T05:15:56.599Z,1002.99
2022-12-14T05:17:02.307Z,1002.95
2022-12-14T05:17:58.145Z,1003.00
2022-12-14T05:18:57.391Z,1002.99
2022-12-14T05:19:59.557Z,1002.96
2022-12-14T05:20:57.944Z,1002.92
2022-12-14T05:21:58.266Z,1002.93
2022-12-14T05:23:00.435Z,1002.92
2022-12-14T05:23:58.826Z,1002.87
2022-12-14T05:25:01.027Z,1002.92
2022-12-14T05:25:59.412Z,1002.96
2022-12-14T05:27:01.597Z,1002.93
2022-12-14T05:28:01.771Z,1002.90
2022-12-14T05:29:01.922Z,1002.92
2022-12-14T05:30:02.088Z,1002.88
2022-12-14T05:31:01.804Z,1002.90
2022-12-14T05:32:02.954Z,1002.89
2022-12-14T05:33:03.122Z,1002.93
2022-12-14T05:34:03.326Z,1002.90
2022-12-14T05:35:04.026Z,1002.84
2022-12-14T05:36:04.224Z,1002.84
2022-12-14T05:37:04.421Z,1002.85
2022-12-14T05:38:04.591Z,1002.83
2022-12-14T05:39:05.274Z,1002.71
2022-12-14T05:40:05.472Z,1002.71
2022-12-14T05:41:05.641Z,1002.67
2022-12-14T05:42:05.859Z,1002.72
2022-12-14T05:43:06.545Z,1002.71
2022-12-14T05:44:06.735Z,1002.67
2022-12-14T05:45:06.935Z,1002.65
2022-12-14T05:46:07.185Z,1002.70
2022-12-14T05:47:07.329Z,1002.64
2022-12-14T05:48:06.090Z,1002.64
2022-12-14T05:49:08.289Z,1002.66
2022-12-14T05:50:06.663Z,1002.66
2022-12-14T05:51:06.975Z,1002.65
2022-12-14T05:52:07.293Z,1002.71
2022-12-14T05:53:07.748Z,1002.68
2022-12-14T05:54:09.796Z,1002.77
2022-12-14T05:55:08.187Z,1002.71
2022-12-14T05:56:08.509Z,1002.73
2022-12-14T05:57:10.694Z,1002.73
2022-12-14T05:58:10.903Z,1002.71
2022-12-14T05:59:11.081Z,1002.64
2022-12-14T06:00:11.286Z,1002.67
2022-12-14T06:01:18.519Z,1002.68
2022-12-14T06:02:11.464Z,1002.68
2022-12-14T06:03:12.574Z,1002.63
2022-12-14T06:04:12.790Z,1002.62
2022-12-14T06:05:12.909Z,1002.62
2022-12-14T06:06:13.092Z,1002.59
2022-12-14T06:07:13.794Z,1002.62
2022-12-14T06:08:12.175Z,1002.54
2022-12-14T06:09:14.358Z,1002.55
2022-12-14T06:10:12.800Z,1002.55
2022-12-14T06:11:14.926Z,1002.52
2022-12-14T06:12:13.332Z,1002.52
2022-12-14T06:13:16.523Z,1002.49
2022-12-14T06:14:15.711Z,1002.48
2022-12-14T06:15:14.332Z,1002.55
2022-12-14T06:16:15.387Z,1002.51
2022-12-14T06:17:14.748Z,1002.56
2022-12-14T06:18:15.068Z,1002.52
2022-12-14T06:19:17.264Z,1002.52
2022-12-14T06:20:15.651Z,1002.49
2022-12-14T06:21:15.964Z,1002.48
2022-12-14T06:22:16.285Z,1002.50
2022-12-14T06:23:18.456Z,1002.51
2022-12-14T06:24:18.662Z,1002.56
2022-12-14T06:25:17.175Z,1002.51
2022-12-14T06:26:17.487Z,1002.54
2022-12-14T06:27:17.801Z,1002.58
2022-12-14T06:28:19.993Z,1002.57
2022-12-14T06:29:19.343Z,1002.56
2022-12-14T06:30:19.582Z,1002.57
2022-12-14T06:31:19.028Z,1002.56
2022-12-14T06:32:19.197Z,1002.56
2022-12-14T06:33:19.496Z,1002.57
2022-12-14T06:34:28.071Z,1002.56
2022-12-14T06:35:21.098Z,1002.57
2022-12-14T06:36:20.345Z,1002.58
2022-12-14T06:37:20.651Z,1002.58
2022-12-14T06:38:20.959Z,1002.58
2022-12-14T06:39:23.141Z,1002.57
2022-12-14T06:40:23.331Z,1002.57
2022-12-14T06:41:21.860Z,1002.59
2022-12-14T06:42:22.173Z,1002.64
2022-12-14T06:43:22.494Z,1002.60
2022-12-14T06:44:22.802Z,1002.63
2022-12-14T06:45:23.111Z,1002.58
2022-12-14T06:46:23.471Z,1002.53
2022-12-14T06:47:23.774Z,1002.56
2022-12-14T06:48:24.088Z,1002.55
2022-12-14T06:49:26.275Z,1002.55
2022-12-14T06:50:24.664Z,1002.56
2022-12-14T06:51:24.960Z,1002.54
2022-12-14T06:52:27.181Z,1002.50
2022-12-14T06:53:25.919Z,1002.53
2022-12-14T06:54:25.853Z,1002.54
2022-12-14T06:55:28.031Z,1002.50
2022-12-14T06:56:26.423Z,1002.53
2022-12-14T06:57:26.742Z,1002.55
2022-12-14T06:58:32.395Z,1002.57
2022-12-14T06:59:28.381Z,1002.57
2022-12-14T07:00:29.632Z,1002.52
2022-12-14T07:01:29.899Z,1002.52
2022-12-14T07:02:28.248Z,1002.57
2022-12-14T07:03:29.530Z,1002.49
2022-12-14T07:04:30.553Z,1002.54
2022-12-14T07:05:28.940Z,1002.58
2022-12-14T07:06:29.251Z,1002.50
2022-12-14T07:07:29.565Z,1002.58
2022-12-14T07:08:29.880Z,1002.57
2022-12-14T07:09:32.066Z,1002.57
2022-12-14T07:10:30.469Z,1002.56
2022-12-14T07:11:32.675Z,1002.61
2022-12-14T07:12:32.874Z,1002.57
2022-12-14T07:13:33.069Z,1002.56
2022-12-14T07:14:33.293Z,1002.55
2022-12-14T07:15:33.522Z,1002.60
2022-12-14T07:16:34.168Z,1002.56
2022-12-14T07:17:34.374Z,1002.55
2022-12-14T07:18:34.569Z,1002.60
2022-12-14T07:19:34.745Z,1002.59
2022-12-14T07:20:35.444Z,1002.57
2022-12-14T07:21:35.686Z,1002.61
2022-12-14T07:22:35.894Z,1002.65
2022-12-14T07:23:34.934Z,1002.67
2022-12-14T07:24:36.611Z,1002.62
2022-12-14T07:25:36.774Z,1002.67
2022-12-14T07:26:36.946Z,1002.63
2022-12-14T07:27:37.120Z,1002.65
2022-12-14T07:28:37.883Z,1002.66
2022-12-14T07:29:38.028Z,1002.66
2022-12-14T07:30:36.434Z,1002.64
2022-12-14T07:31:36.870Z,1002.65
2022-12-14T07:32:38.981Z,1002.68
2022-12-14T07:33:39.163Z,1002.65
2022-12-14T07:34:39.350Z,1002.67
2022-12-14T07:35:39.541Z,1002.65
2022-12-14T07:36:40.231Z,1002.61
2022-12-14T07:37:40.441Z,1002.63
2022-12-14T07:38:40.629Z,1002.60
2022-12-14T07:39:40.878Z,1002.65
2022-12-14T07:40:39.553Z,1002.57
2022-12-14T07:41:41.741Z,1002.60
2022-12-14T07:42:41.929Z,1002.57
2022-12-14T07:43:42.134Z,1002.59
2022-12-14T07:44:42.326Z,1002.56
2022-12-14T07:45:43.015Z,1002.56
2022-12-14T07:46:43.217Z,1002.55
2022-12-14T07:47:43.376Z,1002.55
2022-12-14T07:48:43.560Z,1002.56
2022-12-14T07:49:43.756Z,1002.63
2022-12-14T07:50:44.483Z,1002.60
2022-12-14T07:51:42.772Z,1002.61
2022-12-14T07:52:44.947Z,1002.54
2022-12-14T07:53:45.130Z,1002.61
2022-12-14T07:54:45.326Z,1002.58
2022-12-14T07:55:45.559Z,1002.58
2022-12-14T07:56:45.752Z,1002.62
2022-12-14T07:57:44.532Z,1002.56
2022-12-14T07:58:46.742Z,1002.58
2022-12-14T07:59:45.175Z,1002.58
2022-12-14T08:00:45.380Z,1002.56
2022-12-14T08:01:45.988Z,1002.58
2022-12-14T08:02:46.027Z,1002.61
2022-12-14T08:03:49.609Z,1002.57
2022-12-14T08:04:48.346Z,1002.54
2022-12-14T08:05:46.892Z,1002.58
2022-12-14T08:06:47.119Z,1002.54
2022-12-14T08:07:47.352Z,1002.57
2022-12-14T08:08:47.569Z,1002.58
2022-12-14T08:09:49.770Z,1002.60
2022-12-14T08:10:48.299Z,1002.57
2022-12-14T08:11:48.536Z,1002.53
2022-12-14T08:12:48.794Z,1002.52
2022-12-14T08:13:49.010Z,1002.48
2022-12-14T08:14:52.141Z,1002.49
2022-12-14T08:15:49.731Z,1002.54
2022-12-14T08:16:49.935Z,1002.45
2022-12-14T08:17:50.171Z,1002.50
2022-12-14T08:18:50.398Z,1002.45
2022-12-14T08:19:50.636Z,1002.43
2022-12-14T08:20:53.445Z,1002.42
2022-12-14T08:21:51.199Z,1002.42
2022-12-14T08:22:51.433Z,1002.40
2022-12-14T08:23:52.511Z,1002.42
2022-12-14T08:24:52.871Z,1002.45
2022-12-14T08:25:54.095Z,1002.50
2022-12-14T08:26:52.535Z,1002.42
2022-12-14T08:27:52.773Z,1002.52
2022-12-14T08:28:53.008Z,1002.49
2022-12-14T08:29:55.201Z,1002.53
2022-12-14T08:30:55.384Z,1002.44
2022-12-14T08:31:54.023Z,1002.47
2022-12-14T08:32:54.242Z,1002.43
2022-12-14T08:33:54.477Z,1002.47
2022-12-14T08:34:56.650Z,1002.48
2022-12-14T08:35:54.960Z,1002.48
2022-12-14T08:36:55.179Z,1002.39
2022-12-14T08:37:57.362Z,1002.43
2022-12-14T08:38:55.672Z,1002.43
2022-12-14T08:39:55.902Z,1002.40
2022-12-14T08:40:56.167Z,1002.45
2022-12-14T08:41:56.444Z,1002.44
2022-12-14T08:42:58.612Z,1002.39
2022-12-14T08:43:56.913Z,1002.46
2022-12-14T08:44:57.160Z,1002.46
2022-12-14T08:45:57.399Z,1002.51
2022-12-14T08:46:57.723Z,1002.48
2022-12-14T08:47:59.804Z,1002.54
2022-12-14T08:48:58.295Z,1002.50
2022-12-14T08:49:58.499Z,1002.58
2022-12-14T08:51:00.695Z,1002.55
2022-12-14T08:51:58.995Z,1002.53
2022-12-14T08:52:59.220Z,1002.56
2022-12-14T08:53:59.455Z,1002.52
2022-12-14T08:55:01.647Z,1002.50
2022-12-14T08:56:01.841Z,1002.48
2022-12-14T08:57:01.995Z,1002.47
2022-12-14T08:58:02.192Z,1002.43
2022-12-14T08:59:02.372Z,1002.46
2022-12-14T09:00:03.400Z,1002.48
2022-12-14T09:01:01.568Z,1002.47
2022-12-14T09:02:01.893Z,1002.45
2022-12-14T09:03:02.312Z,1002.46
2022-12-14T09:04:02.417Z,1002.45
2022-12-14T09:05:04.618Z,1002.43
2022-12-14T09:06:02.918Z,1002.44
2022-12-14T09:07:05.094Z,1002.42
2022-12-14T09:08:03.398Z,1002.39
2022-12-14T09:09:08.164Z,1002.44
2022-12-14T09:10:04.890Z,1002.45
2022-12-14T09:11:06.051Z,1002.39
2022-12-14T09:12:06.230Z,1002.38
2022-12-14T09:13:06.437Z,1002.40
2022-12-14T09:14:06.627Z,1002.40
2022-12-14T09:15:05.428Z,1002.40
2022-12-14T09:16:07.657Z,1002.41
2022-12-14T09:17:07.828Z,1002.42
2022-12-14T09:18:08.017Z,1002.42
2022-12-14T09:19:08.201Z,1002.43
2022-12-14T09:20:08.398Z,1002.41
2022-12-14T09:21:09.095Z,1002.41
2022-12-14T09:22:09.395Z,1002.42
2022-12-14T09:23:08.449Z,1002.44
2022-12-14T09:24:08.111Z,1002.41
2022-12-14T09:25:08.335Z,1002.42
2022-12-14T09:26:10.538Z,1002.45
2022-12-14T09:27:08.825Z,1002.42
2022-12-14T09:28:09.186Z,1002.42
2022-12-14T09:29:11.353Z,1002.46
2022-12-14T09:30:09.659Z,1002.38
2022-12-14T09:31:11.915Z,1002.46
2022-12-14T09:32:10.231Z,1002.44
2022-12-14T09:33:10.436Z,1002.41
2022-12-14T09:34:10.775Z,1002.44
2022-12-14T09:35:10.987Z,1002.42
2022-12-14T09:36:13.178Z,1002.43
2022-12-14T09:37:11.598Z,1002.45
2022-12-14T09:38:11.851Z,1002.43
2022-12-14T09:39:12.117Z,1002.40
2022-12-14T09:40:14.267Z,1002.40
2022-12-14T09:41:14.447Z,1002.39
2022-12-14T09:42:14.655Z,1002.38
2022-12-14T09:43:15.352Z,1002.36
2022-12-14T09:44:18.523Z,1002.34
2022-12-14T09:45:15.722Z,1002.33
2022-12-14T09:46:15.982Z,1002.34
2022-12-14T09:47:16.143Z,1002.31
2022-12-14T09:48:16.319Z,1002.25
2022-12-14T09:49:17.000Z,1002.31
2022-12-14T09:50:17.181Z,1002.31
2022-12-14T09:51:15.765Z,1002.26
2022-12-14T09:52:17.936Z,1002.25
2022-12-14T09:53:18.137Z,1002.26
2022-12-14T09:54:18.407Z,1002.23
2022-12-14T09:55:18.628Z,1002.24
2022-12-14T09:56:18.804Z,1002.21
2022-12-14T09:57:19.010Z,1002.24
2022-12-14T09:58:19.679Z,1002.27
2022-12-14T09:59:19.908Z,1002.22
2022-12-14T10:00:20.126Z,1002.23
2022-12-14T10:01:20.401Z,1002.12
2022-12-14T10:02:34.770Z,1002.18
2022-12-14T10:03:20.343Z,1002.22
2022-12-14T10:04:19.516Z,1002.17
2022-12-14T10:05:21.637Z,1002.19
2022-12-14T10:06:19.964Z,1002.13
2022-12-14T10:07:20.192Z,1002.11
2022-12-14T10:08:20.435Z,1002.10
2022-12-14T10:09:20.650Z,1002.13
2022-12-14T10:10:22.850Z,1002.09
2022-12-14T10:11:21.266Z,1002.07
2022-12-14T10:12:23.442Z,1002.03
2022-12-14T10:13:21.950Z,1002.06
2022-12-14T10:14:24.142Z,1002.06
2022-12-14T10:15:22.563Z,1002.00
2022-12-14T10:16:24.767Z,1002.04
2022-12-14T10:17:23.183Z,1002.01
2022-12-14T10:18:57.813Z,1002.01
2022-12-14T10:19:24.793Z,1002.00
2022-12-14T10:20:25.995Z,1001.95
2022-12-14T10:21:26.136Z,1001.96
2022-12-14T10:22:24.562Z,1001.91
2022-12-14T10:23:26.795Z,1001.95
2022-12-14T10:24:25.104Z,1001.87
2022-12-14T10:25:25.348Z,1001.78
2022-12-14T10:26:27.519Z,1001.79
2022-12-14T10:27:25.826Z,1001.76
2022-12-14T10:28:26.239Z,1001.79
2022-12-14T10:29:28.270Z,1001.76
2022-12-14T10:30:26.575Z,1001.74
2022-12-14T10:31:26.827Z,1001.72
2022-12-14T10:32:27.058Z,1001.76
2022-12-14T10:33:27.294Z,1001.71
2022-12-14T10:34:29.479Z,1001.70
2022-12-14T10:35:27.796Z,1001.67
2022-12-14T10:36:28.036Z,1001.59
2022-12-14T10:37:28.295Z,1001.65
2022-12-14T10:38:28.877Z,1001.64
2022-12-14T10:39:30.704Z,1001.62
2022-12-14T10:40:34.095Z,1001.59
2022-12-14T10:41:32.320Z,1001.60
2022-12-14T10:42:31.513Z,1001.58
2022-12-14T10:43:29.953Z,1001.55
2022-12-14T10:44:30.183Z,1001.54
2022-12-14T10:45:40.483Z,1001.58
2022-12-14T10:46:33.671Z,1001.50
2022-12-14T10:47:30.945Z,1001.51
2022-12-14T10:48:31.594Z,1001.49
2022-12-14T10:49:31.539Z,1001.46
2022-12-14T10:50:31.773Z,1001.49
2022-12-14T10:51:33.953Z,1001.45
2022-12-14T10:52:34.160Z,1001.40
2022-12-14T10:53:38.707Z,1001.40
2022-12-14T10:54:35.811Z,1001.38
2022-12-14T10:55:33.139Z,1001.38
2022-12-14T10:56:35.395Z,1001.45
2022-12-14T10:57:35.519Z,1001.45
2022-12-14T10:58:34.030Z,1001.40
2022-12-14T10:59:39.590Z,1001.38
2022-12-14T11:00:37.421Z,1001.42
2022-12-14T11:01:34.871Z,1001.43
2022-12-14T11:02:36.998Z,1001.41
2022-12-14T11:03:35.417Z,1001.34
2022-12-14T11:04:37.576Z,1001.31
2022-12-14T11:05:37.015Z,1001.32
2022-12-14T11:06:36.149Z,1001.30
2022-12-14T11:07:36.399Z,1001.35
2022-12-14T11:08:36.619Z,1001.30
2022-12-14T11:09:38.797Z,1001.28
2022-12-14T11:10:37.109Z,1001.30
2022-12-14T11:11:37.371Z,1001.25
2022-12-14T11:12:37.667Z,1001.36
2022-12-14T11:13:37.908Z,1001.27
2022-12-14T11:14:40.102Z,1001.28
2022-12-14T11:15:40.291Z,1001.18
2022-12-14T11:16:40.609Z,1001.21
2022-12-14T11:17:40.826Z,1001.23
2022-12-14T11:18:40.872Z,1001.27
2022-12-14T11:19:41.084Z,1001.19
2022-12-14T11:20:39.743Z,1001.17
2022-12-14T11:21:39.983Z,1001.21
2022-12-14T11:22:40.238Z,1001.17
2022-12-14T11:23:40.485Z,1001.12
2022-12-14T11:24:42.670Z,1001.16
2022-12-14T11:25:42.854Z,1001.13
2022-12-14T11:26:43.022Z,1001.12
2022-12-14T11:27:43.236Z,1001.06
2022-12-14T11:28:42.207Z,1001.01
2022-12-14T11:29:44.090Z,1001.05
2022-12-14T11:30:44.323Z,1001.04
2022-12-14T11:31:44.462Z,1001.03
2022-12-14T11:32:44.129Z,1001.06
2022-12-14T11:33:45.294Z,1001.05
2022-12-14T11:34:46.501Z,1001.02
2022-12-14T11:35:45.693Z,1001.03
2022-12-14T11:36:46.431Z,1001.06
2022-12-14T11:37:44.637Z,1001.03
2022-12-14T11:38:44.878Z,1001.00
2022-12-14T11:39:47.065Z,1001.04
2022-12-14T11:40:47.242Z,1001.04
2022-12-14T11:41:45.798Z,1000.99
2022-12-14T11:42:46.035Z,1001.06
2022-12-14T11:43:46.322Z,1001.01
2022-12-14T11:44:46.538Z,1001.03
2022-12-14T11:45:49.556Z,1001.04
2022-12-14T11:46:47.117Z,1000.98
2022-12-14T11:47:47.324Z,1001.02
2022-12-14T11:48:48.525Z,1000.97
2022-12-14T11:49:49.802Z,1001.03
2022-12-14T11:50:49.990Z,1001.10
2022-12-14T11:51:48.532Z,1001.08
2022-12-14T11:52:48.771Z,1001.08
2022-12-14T11:53:50.966Z,1001.07
2022-12-14T11:54:51.173Z,1001.09
2022-12-14T11:55:51.349Z,1001.09
2022-12-14T11:56:51.542Z,1001.12
2022-12-14T11:57:51.261Z,1001.04
2022-12-14T11:58:52.441Z,1001.07
2022-12-14T11:59:52.658Z,1001.08
2022-12-14T12:00:52.848Z,1001.08
2022-12-14T12:01:53.622Z,1001.09
2022-12-14T12:02:53.798Z,1001.06
2022-12-14T12:03:54.001Z,1001.11
2022-12-14T12:04:54.083Z,1001.07
2022-12-14T12:05:54.270Z,1001.06
2022-12-14T12:06:56.975Z,1001.05
2022-12-14T12:07:56.179Z,1000.98
2022-12-14T12:08:55.339Z,1001.02